sensor_id;sensor_type;location;lat;lon;timestamp;temperature;humidity
64855;DHT22;51321;50.428;8.378;2022-12-18T00:00:55;-9.40;99.90
64855;DHT22;51321;50.428;8.378;2022-12-18T00:03:18;-9.40;99.90
64855;DHT22;51321;50.428;8.378;2022-12-18T00:05:45;-9.50;99.90
64855;DHT22;51321;50.428;8.378;2022-12-18T00:08:08;-9.40;99.90
64855;DHT22;51321;50.428;8.378;2022-12-18T00:10:31;-9.50;99.90
64855;DHT22;51321;50.428;8.378;2022-12-18T00:12:53;-9.50;99.90
64855;DHT22;51321;50.428;8.378;2022-12-18T00:15:20;-9.60;99.90
64855;DHT22;51321;50.428;8.378;2022-12-18T00:17:48;-9.50;99.90
64855;DHT22;51321;50.428;8.378;2022-12-18T00:20:11;-9.40;99.90
64855;DHT22;51321;50.428;8.378;2022-12-18T00:22:34;-9.40;99.90
64855;DHT22;51321;50.428;8.378;2022-12-18T00:24:56;-9.40;99.90
64855;DHT22;51321;50.428;8.378;2022-12-18T00:27:18;-9.30;99.90
64855;DHT22;51321;50.428;8.378;2022-12-18T00:29:42;-9.40;99.90
64855;DHT22;51321;50.428;8.378;2022-12-18T00:32:09;-9.40;99.90
64855;DHT22;51321;50.428;8.378;2022-12-18T00:34:31;-9.50;99.90
64855;DHT22;51321;50.428;8.378;2022-12-18T00:36:53;-9.60;99.90
64855;DHT22;51321;50.428;8.378;2022-12-18T00:39:16;-9.80;99.90
64855;DHT22;51321;50.428;8.378;2022-12-18T00:41:39;-9.80;99.90
64855;DHT22;51321;50.428;8.378;2022-12-18T00:44:20;-9.80;99.90
64855;DHT22;51321;50.428;8.378;2022-12-18T00:46:46;-9.70;99.90
64855;DHT22;51321;50.428;8.378;2022-12-18T00:49:12;-9.70;99.90
64855;DHT22;51321;50.428;8.378;2022-12-18T00:51:36;-9.60;99.90
64855;DHT22;51321;50.428;8.378;2022-12-18T00:53:59;-9.60;99.90
64855;DHT22;51321;50.428;8.378;2022-12-18T00:56:25;-9.70;99.90
64855;DHT22;51321;50.428;8.378;2022-12-18T00:58:49;-9.70;99.90
64855;DHT22;51321;50.428;8.378;2022-12-18T01:01:11;-9.50;99.90
64855;DHT22;51321;50.428;8.378;2022-12-18T01:03:34;-9.50;99.90
64855;DHT22;51321;50.428;8.378;2022-12-18T01:05:58;-9.60;99.90
64855;DHT22;51321;50.428;8.378;2022-12-18T01:08:27;-9.70;99.90
64855;DHT22;51321;50.428;8.378;2022-12-18T01:11:14;-9.70;99.90
64855;DHT22;51321;50.428;8.378;2022-12-18T01:13:58;-9.70;99.90
64855;DHT22;51321;50.428;8.378;2022-12-18T01:16:42;-9.70;99.90
64855;DHT22;51321;50.428;8.378;2022-12-18T01:19:09;-9.80;99.90
64855;DHT22;51321;50.428;8.378;2022-12-18T01:21:36;-9.90;99.90
64855;DHT22;51321;50.428;8.378;2022-12-18T01:24:12;-9.90;99.90
64855;DHT22;51321;50.428;8.378;2022-12-18T01:26:47;-9.90;99.90
64855;DHT22;51321;50.428;8.378;2022-12-18T01:29:30;-9.90;99.90
64855;DHT22;51321;50.428;8.378;2022-12-18T01:32:14;-10.00;99.90
64855;DHT22;51321;50.428;8.378;2022-12-18T01:34:56;-10.00;99.90
64855;DHT22;51321;50.428;8.378;2022-12-18T01:38:04;-9.90;99.90
64855;DHT22;51321;50.428;8.378;2022-12-18T01:40:45;-9.80;99.90
64855;DHT22;51321;50.428;8.378;2022-12-18T01:43:43;-9.80;99.90
64855;DHT22;51321;50.428;8.378;2022-12-18T01:46:27;-9.90;99.90
64855;DHT22;51321;50.428;8.378;2022-12-18T01:49:10;-10.00;99.90
64855;DHT22;51321;50.428;8.378;2022-12-18T01:51:55;-10.10;99.90
64855;DHT22;51321;50.428;8.378;2022-12-18T01:54:19;-9.90;99.90
64855;DHT22;51321;50.428;8.378;2022-12-18T01:56:42;-9.70;99.90
64855;DHT22;51321;50.428;8.378;2022-12-18T01:59:06;-9.80;99.90
64855;DHT22;51321;50.428;8.378;2022-12-18T02:01:32;-10.00;99.90
64855;DHT22;51321;50.428;8.378;2022-12-18T02:03:56;-10.10;99.90
64855;DHT22;51321;50.428;8.378;2022-12-18T02:06:40;-10.00;99.90
64855;DHT22;51321;50.428;8.378;2022-12-18T02:09:10;-10.10;99.90
64855;DHT22;51321;50.428;8.378;2022-12-18T02:11:46;-10.20;99.90
64855;DHT22;51321;50.428;8.378;2022-12-18T02:14:20;-10.20;99.90
64855;DHT22;51321;50.428;8.378;2022-12-18T02:16:55;-10.10;99.90
64855;DHT22;51321;50.428;8.378;2022-12-18T02:19:41;-10.10;99.90
64855;DHT22;51321;50.428;8.378;2022-12-18T02:22:20;-10.30;99.90
64855;DHT22;51321;50.428;8.378;2022-12-18T02:24:53;-10.10;99.90
64855;DHT22;51321;50.428;8.378;2022-12-18T02:27:24;-10.00;99.90
64855;DHT22;51321;50.428;8.378;2022-12-18T02:29:50;-10.20;99.90
64855;DHT22;51321;50.428;8.378;2022-12-18T02:32:17;-10.30;99.90
64855;DHT22;51321;50.428;8.378;2022-12-18T02:34:44;-10.30;99.90
64855;DHT22;51321;50.428;8.378;2022-12-18T02:37:13;-10.20;99.90
64855;DHT22;51321;50.428;8.378;2022-12-18T02:39:42;-10.20;99.90
64855;DHT22;51321;50.428;8.378;2022-12-18T02:42:16;-10.20;99.90
64855;DHT22;51321;50.428;8.378;2022-12-18T02:44:49;-10.10;99.90
64855;DHT22;51321;50.428;8.378;2022-12-18T02:47:21;-10.10;99.90
64855;DHT22;51321;50.428;8.378;2022-12-18T02:49:53;-10.00;99.90
64855;DHT22;51321;50.428;8.378;2022-12-18T02:52:31;-10.00;99.90
64855;DHT22;51321;50.428;8.378;2022-12-18T02:55:08;-10.20;99.90
64855;DHT22;51321;50.428;8.378;2022-12-18T02:57:37;-10.30;99.90
64855;DHT22;51321;50.428;8.378;2022-12-18T03:00:07;-10.20;99.90
64855;DHT22;51321;50.428;8.378;2022-12-18T03:02:39;-10.10;99.90
64855;DHT22;51321;50.428;8.378;2022-12-18T03:05:12;-9.90;99.90
64855;DHT22;51321;50.428;8.378;2022-12-18T03:07:38;-10.00;99.90
64855;DHT22;51321;50.428;8.378;2022-12-18T03:10:06;-10.30;99.90
64855;DHT22;51321;50.428;8.378;2022-12-18T03:12:34;-10.40;99.90
64855;DHT22;51321;50.428;8.378;2022-12-18T03:15:01;-10.60;99.90
64855;DHT22;51321;50.428;8.378;2022-12-18T03:17:27;-10.60;99.90
64855;DHT22;51321;50.428;8.378;2022-12-18T03:19:54;-10.40;99.90
64855;DHT22;51321;50.428;8.378;2022-12-18T03:22:21;-10.30;99.90
64855;DHT22;51321;50.428;8.378;2022-12-18T03:24:48;-10.20;99.90
64855;DHT22;51321;50.428;8.378;2022-12-18T03:27:14;-10.50;99.90
64855;DHT22;51321;50.428;8.378;2022-12-18T03:29:43;-10.70;99.90
64855;DHT22;51321;50.428;8.378;2022-12-18T03:32:15;-10.70;99.90
64855;DHT22;51321;50.428;8.378;2022-12-18T03:34:41;-10.70;99.90
64855;DHT22;51321;50.428;8.378;2022-12-18T03:37:07;-10.70;99.90
64855;DHT22;51321;50.428;8.378;2022-12-18T03:39:31;-10.40;99.90
64855;DHT22;51321;50.428;8.378;2022-12-18T03:41:58;-10.50;99.90
64855;DHT22;51321;50.428;8.378;2022-12-18T03:44:34;-10.60;99.90
64855;DHT22;51321;50.428;8.378;2022-12-18T03:47:05;-10.60;99.90
64855;DHT22;51321;50.428;8.378;2022-12-18T03:49:38;-10.70;99.90
64855;DHT22;51321;50.428;8.378;2022-12-18T03:52:09;-10.70;99.90
64855;DHT22;51321;50.428;8.378;2022-12-18T03:54:35;-10.50;99.90
64855;DHT22;51321;50.428;8.378;2022-12-18T03:57:11;-10.40;99.90
64855;DHT22;51321;50.428;8.378;2022-12-18T03:59:38;-10.30;99.90
64855;DHT22;51321;50.428;8.378;2022-12-18T04:02:01;-10.40;99.90
64855;DHT22;51321;50.428;8.378;2022-12-18T04:04:26;-10.40;99.90
64855;DHT22;51321;50.428;8.378;2022-12-18T04:06:50;-10.60;99.90
64855;DHT22;51321;50.428;8.378;2022-12-18T04:09:16;-10.50;99.90
64855;DHT22;51321;50.428;8.378;2022-12-18T04:11:41;-10.60;99.90
64855;DHT22;51321;50.428;8.378;2022-12-18T04:14:07;-10.70;99.90
64855;DHT22;51321;50.428;8.378;2022-12-18T04:16:29;-10.70;99.90
64855;DHT22;51321;50.428;8.378;2022-12-18T04:18:55;-10.60;99.90
64855;DHT22;51321;50.428;8.378;2022-12-18T04:21:22;-10.70;99.90
64855;DHT22;51321;50.428;8.378;2022-12-18T04:23:44;-10.50;99.90
64855;DHT22;51321;50.428;8.378;2022-12-18T04:26:10;-10.50;99.90
64855;DHT22;51321;50.428;8.378;2022-12-18T04:28:52;-10.70;99.90
64855;DHT22;51321;50.428;8.378;2022-12-18T04:31:17;-10.80;99.90
64855;DHT22;51321;50.428;8.378;2022-12-18T04:33:42;-10.70;99.90
64855;DHT22;51321;50.428;8.378;2022-12-18T04:36:07;-10.70;99.90
64855;DHT22;51321;50.428;8.378;2022-12-18T04:38:30;-10.70;99.90
64855;DHT22;51321;50.428;8.378;2022-12-18T04:41:00;-10.70;99.90
64855;DHT22;51321;50.428;8.378;2022-12-18T04:43:34;-10.80;99.90
64855;DHT22;51321;50.428;8.378;2022-12-18T04:46:03;-10.70;99.90
64855;DHT22;51321;50.428;8.378;2022-12-18T04:48:26;-10.80;99.90
64855;DHT22;51321;50.428;8.378;2022-12-18T04:50:50;-10.80;99.90
64855;DHT22;51321;50.428;8.378;2022-12-18T04:53:13;-10.80;99.90
64855;DHT22;51321;50.428;8.378;2022-12-18T04:55:36;-10.80;99.90
64855;DHT22;51321;50.428;8.378;2022-12-18T04:57:59;-10.80;99.90
64855;DHT22;51321;50.428;8.378;2022-12-18T05:00:26;-10.80;99.90
64855;DHT22;51321;50.428;8.378;2022-12-18T05:02:49;-10.80;99.90
64855;DHT22;51321;50.428;8.378;2022-12-18T05:05:11;-10.60;99.90
64855;DHT22;51321;50.428;8.378;2022-12-18T05:07:34;-10.50;99.90
64855;DHT22;51321;50.428;8.378;2022-12-18T05:09:57;-10.50;99.90
64855;DHT22;51321;50.428;8.378;2022-12-18T05:12:23;-10.60;99.90
64855;DHT22;51321;50.428;8.378;2022-12-18T05:14:47;-10.50;99.90
64855;DHT22;51321;50.428;8.378;2022-12-18T05:17:11;-10.50;99.90
64855;DHT22;51321;50.428;8.378;2022-12-18T05:19:33;-10.70;99.90
64855;DHT22;51321;50.428;8.378;2022-12-18T05:21:56;-10.70;99.90
64855;DHT22;51321;50.428;8.378;2022-12-18T05:24:19;-10.80;99.90
64855;DHT22;51321;50.428;8.378;2022-12-18T05:26:42;-10.80;99.90
64855;DHT22;51321;50.428;8.378;2022-12-18T05:29:04;-10.90;99.90
64855;DHT22;51321;50.428;8.378;2022-12-18T05:31:26;-10.90;99.90
64855;DHT22;51321;50.428;8.378;2022-12-18T05:33:50;-10.80;99.90
64855;DHT22;51321;50.428;8.378;2022-12-18T05:36:12;-10.80;99.90
64855;DHT22;51321;50.428;8.378;2022-12-18T05:38:36;-10.70;99.90
64855;DHT22;51321;50.428;8.378;2022-12-18T05:40:59;-10.60;99.90
64855;DHT22;51321;50.428;8.378;2022-12-18T05:43:23;-10.70;99.90
64855;DHT22;51321;50.428;8.378;2022-12-18T05:45:45;-10.90;99.90
64855;DHT22;51321;50.428;8.378;2022-12-18T05:48:13;-11.00;99.90
64855;DHT22;51321;50.428;8.378;2022-12-18T05:50:38;-10.70;99.90
64855;DHT22;51321;50.428;8.378;2022-12-18T05:53:03;-10.70;99.90
64855;DHT22;51321;50.428;8.378;2022-12-18T05:55:29;-10.60;99.90
64855;DHT22;51321;50.428;8.378;2022-12-18T05:57:53;-10.70;99.90
64855;DHT22;51321;50.428;8.378;2022-12-18T06:00:17;-10.90;99.90
64855;DHT22;51321;50.428;8.378;2022-12-18T06:02:47;-10.80;99.90
64855;DHT22;51321;50.428;8.378;2022-12-18T06:05:11;-11.00;99.90
64855;DHT22;51321;50.428;8.378;2022-12-18T06:07:35;-11.00;99.90
64855;DHT22;51321;50.428;8.378;2022-12-18T06:10:07;-10.90;99.90
64855;DHT22;51321;50.428;8.378;2022-12-18T06:12:32;-10.90;99.90
64855;DHT22;51321;50.428;8.378;2022-12-18T06:14:54;-11.00;99.90
64855;DHT22;51321;50.428;8.378;2022-12-18T06:17:17;-10.90;99.90
64855;DHT22;51321;50.428;8.378;2022-12-18T06:19:42;-10.90;99.90
64855;DHT22;51321;50.428;8.378;2022-12-18T06:22:06;-10.90;99.90
64855;DHT22;51321;50.428;8.378;2022-12-18T06:24:30;-10.80;99.90
64855;DHT22;51321;50.428;8.378;2022-12-18T06:26:52;-10.70;99.90
64855;DHT22;51321;50.428;8.378;2022-12-18T06:29:15;-10.70;99.90
64855;DHT22;51321;50.428;8.378;2022-12-18T06:31:39;-10.60;99.90
64855;DHT22;51321;50.428;8.378;2022-12-18T06:34:01;-10.60;99.90
64855;DHT22;51321;50.428;8.378;2022-12-18T06:36:24;-10.70;99.90
64855;DHT22;51321;50.428;8.378;2022-12-18T06:38:46;-10.70;99.90
64855;DHT22;51321;50.428;8.378;2022-12-18T06:41:13;-10.70;99.90
64855;DHT22;51321;50.428;8.378;2022-12-18T06:43:38;-10.80;99.90
64855;DHT22;51321;50.428;8.378;2022-12-18T06:46:01;-10.90;99.90
64855;DHT22;51321;50.428;8.378;2022-12-18T06:48:23;-10.90;99.90
64855;DHT22;51321;50.428;8.378;2022-12-18T06:50:50;-10.90;99.90
64855;DHT22;51321;50.428;8.378;2022-12-18T06:53:12;-10.80;99.90
64855;DHT22;51321;50.428;8.378;2022-12-18T06:55:35;-10.80;99.90
64855;DHT22;51321;50.428;8.378;2022-12-18T06:58:00;-11.00;99.90
64855;DHT22;51321;50.428;8.378;2022-12-18T07:00:23;-10.90;99.90
64855;DHT22;51321;50.428;8.378;2022-12-18T07:02:47;-11.00;99.90
64855;DHT22;51321;50.428;8.378;2022-12-18T07:05:12;-11.00;99.90
64855;DHT22;51321;50.428;8.378;2022-12-18T07:07:35;-10.90;99.90
64855;DHT22;51321;50.428;8.378;2022-12-18T07:09:59;-10.90;99.90
64855;DHT22;51321;50.428;8.378;2022-12-18T07:12:23;-10.60;99.90
64855;DHT22;51321;50.428;8.378;2022-12-18T07:14:48;-10.70;99.90
64855;DHT22;51321;50.428;8.378;2022-12-18T07:17:10;-10.70;99.90
64855;DHT22;51321;50.428;8.378;2022-12-18T07:19:34;-10.90;99.90
64855;DHT22;51321;50.428;8.378;2022-12-18T07:21:59;-10.90;99.90
64855;DHT22;51321;50.428;8.378;2022-12-18T07:24:21;-10.80;99.90
64855;DHT22;51321;50.428;8.378;2022-12-18T07:26:46;-10.90;99.90
64855;DHT22;51321;50.428;8.378;2022-12-18T07:29:09;-10.80;99.90
64855;DHT22;51321;50.428;8.378;2022-12-18T07:31:33;-10.70;99.90
64855;DHT22;51321;50.428;8.378;2022-12-18T07:33:57;-10.60;99.90
64855;DHT22;51321;50.428;8.378;2022-12-18T07:36:21;-10.70;99.90
64855;DHT22;51321;50.428;8.378;2022-12-18T07:38:47;-10.50;99.90
64855;DHT22;51321;50.428;8.378;2022-12-18T07:41:13;-10.50;99.90
64855;DHT22;51321;50.428;8.378;2022-12-18T07:43:41;-10.50;99.90
64855;DHT22;51321;50.428;8.378;2022-12-18T07:46:05;-10.50;99.90
64855;DHT22;51321;50.428;8.378;2022-12-18T07:48:29;-10.60;99.90
64855;DHT22;51321;50.428;8.378;2022-12-18T07:50:52;-10.50;99.90
64855;DHT22;51321;50.428;8.378;2022-12-18T07:53:15;-10.50;99.90
64855;DHT22;51321;50.428;8.378;2022-12-18T07:55:37;-10.50;99.90
64855;DHT22;51321;50.428;8.378;2022-12-18T07:58:02;-10.40;99.90
64855;DHT22;51321;50.428;8.378;2022-12-18T08:00:29;-10.50;99.90
64855;DHT22;51321;50.428;8.378;2022-12-18T08:02:52;-10.40;99.90
64855;DHT22;51321;50.428;8.378;2022-12-18T08:05:17;-10.30;99.90
64855;DHT22;51321;50.428;8.378;2022-12-18T08:07:41;-10.20;99.90
64855;DHT22;51321;50.428;8.378;2022-12-18T08:10:04;-10.00;99.90
64855;DHT22;51321;50.428;8.378;2022-12-18T08:12:26;-10.00;99.90
64855;DHT22;51321;50.428;8.378;2022-12-18T08:14:49;-9.90;99.90
64855;DHT22;51321;50.428;8.378;2022-12-18T08:17:11;-9.90;99.90
64855;DHT22;51321;50.428;8.378;2022-12-18T08:19:33;-9.90;99.90
64855;DHT22;51321;50.428;8.378;2022-12-18T08:21:57;-9.80;99.90
64855;DHT22;51321;50.428;8.378;2022-12-18T08:24:21;-9.70;99.90
64855;DHT22;51321;50.428;8.378;2022-12-18T08:26:44;-9.60;99.90
64855;DHT22;51321;50.428;8.378;2022-12-18T08:29:09;-9.50;99.90
64855;DHT22;51321;50.428;8.378;2022-12-18T08:31:31;-9.30;99.90
64855;DHT22;51321;50.428;8.378;2022-12-18T08:33:56;-9.20;99.90
64855;DHT22;51321;50.428;8.378;2022-12-18T08:36:19;-9.10;99.90
64855;DHT22;51321;50.428;8.378;2022-12-18T08:38:45;-8.90;99.90
64855;DHT22;51321;50.428;8.378;2022-12-18T08:41:10;-8.80;99.90
64855;DHT22;51321;50.428;8.378;2022-12-18T08:43:34;-8.70;99.90
64855;DHT22;51321;50.428;8.378;2022-12-18T08:46:14;-8.50;99.90
64855;DHT22;51321;50.428;8.378;2022-12-18T08:48:36;-8.30;99.90
64855;DHT22;51321;50.428;8.378;2022-12-18T08:50:59;-8.10;99.90
64855;DHT22;51321;50.428;8.378;2022-12-18T08:53:21;-7.80;99.90
64855;DHT22;51321;50.428;8.378;2022-12-18T08:55:48;-7.70;99.90
64855;DHT22;51321;50.428;8.378;2022-12-18T08:58:11;-7.60;99.90
64855;DHT22;51321;50.428;8.378;2022-12-18T09:00:33;-7.60;99.90
64855;DHT22;51321;50.428;8.378;2022-12-18T09:02:55;-7.60;99.90
64855;DHT22;51321;50.428;8.378;2022-12-18T09:05:18;-7.40;99.90
64855;DHT22;51321;50.428;8.378;2022-12-18T09:07:41;-7.20;99.90
64855;DHT22;51321;50.428;8.378;2022-12-18T09:10:04;-7.00;99.90
64855;DHT22;51321;50.428;8.378;2022-12-18T09:12:28;-6.60;99.90
64855;DHT22;51321;50.428;8.378;2022-12-18T09:14:56;-6.30;99.90
64855;DHT22;51321;50.428;8.378;2022-12-18T09:17:18;-6.20;99.90
64855;DHT22;51321;50.428;8.378;2022-12-18T09:19:41;-6.00;99.90
64855;DHT22;51321;50.428;8.378;2022-12-18T09:22:04;-5.70;99.90
64855;DHT22;51321;50.428;8.378;2022-12-18T09:24:27;-5.50;99.90
64855;DHT22;51321;50.428;8.378;2022-12-18T09:26:53;-5.30;99.90
64855;DHT22;51321;50.428;8.378;2022-12-18T09:29:17;-5.10;99.90
64855;DHT22;51321;50.428;8.378;2022-12-18T09:31:39;-4.90;99.90
64855;DHT22;51321;50.428;8.378;2022-12-18T09:34:02;-4.70;99.90
64855;DHT22;51321;50.428;8.378;2022-12-18T09:36:24;-4.60;99.90
64855;DHT22;51321;50.428;8.378;2022-12-18T09:38:46;-4.40;99.90
64855;DHT22;51321;50.428;8.378;2022-12-18T09:41:15;-4.40;99.90
64855;DHT22;51321;50.428;8.378;2022-12-18T09:43:46;-4.20;99.90
64855;DHT22;51321;50.428;8.378;2022-12-18T09:46:17;-4.00;99.90
64855;DHT22;51321;50.428;8.378;2022-12-18T09:48:43;-3.90;99.90
64855;DHT22;51321;50.428;8.378;2022-12-18T09:51:13;-3.80;99.90
64855;DHT22;51321;50.428;8.378;2022-12-18T09:53:38;-3.70;99.90
64855;DHT22;51321;50.428;8.378;2022-12-18T09:56:05;-3.70;99.90
64855;DHT22;51321;50.428;8.378;2022-12-18T09:58:34;-3.70;99.90
64855;DHT22;51321;50.428;8.378;2022-12-18T10:00:59;-3.70;99.90
64855;DHT22;51321;50.428;8.378;2022-12-18T10:03:23;-3.60;99.90
64855;DHT22;51321;50.428;8.378;2022-12-18T10:05:54;-3.60;99.90
64855;DHT22;51321;50.428;8.378;2022-12-18T10:08:24;-3.60;99.90
64855;DHT22;51321;50.428;8.378;2022-12-18T10:10:53;-3.50;99.90
64855;DHT22;51321;50.428;8.378;2022-12-18T10:13:28;-3.30;99.90
64855;DHT22;51321;50.428;8.378;2022-12-18T10:16:08;-3.10;99.90
64855;DHT22;51321;50.428;8.378;2022-12-18T10:18:50;-3.00;99.90
64855;DHT22;51321;50.428;8.378;2022-12-18T10:21:20;-2.80;99.90
64855;DHT22;51321;50.428;8.378;2022-12-18T10:23:51;-2.70;99.90
64855;DHT22;51321;50.428;8.378;2022-12-18T10:26:18;-2.60;99.90
64855;DHT22;51321;50.428;8.378;2022-12-18T10:28:41;-2.50;99.90
64855;DHT22;51321;50.428;8.378;2022-12-18T10:31:05;-2.30;99.90
64855;DHT22;51321;50.428;8.378;2022-12-18T10:33:34;-2.20;99.90
64855;DHT22;51321;50.428;8.378;2022-12-18T10:35:58;-2.20;99.90
64855;DHT22;51321;50.428;8.378;2022-12-18T10:38:23;-2.10;99.90
64855;DHT22;51321;50.428;8.378;2022-12-18T10:40:52;-2.00;99.90
64855;DHT22;51321;50.428;8.378;2022-12-18T10:43:16;-2.00;99.90
64855;DHT22;51321;50.428;8.378;2022-12-18T10:45:42;-2.00;99.90
64855;DHT22;51321;50.428;8.378;2022-12-18T10:48:21;-1.90;99.90
64855;DHT22;51321;50.428;8.378;2022-12-18T10:50:47;-1.70;99.90
64855;DHT22;51321;50.428;8.378;2022-12-18T10:53:17;-1.80;99.90
64855;DHT22;51321;50.428;8.378;2022-12-18T10:55:44;-1.70;99.90
64855;DHT22;51321;50.428;8.378;2022-12-18T10:58:23;-1.70;99.90
64855;DHT22;51321;50.428;8.378;2022-12-18T11:01:02;-1.70;99.90
64855;DHT22;51321;50.428;8.378;2022-12-18T11:03:31;-1.60;99.90
64855;DHT22;51321;50.428;8.378;2022-12-18T11:06:07;-1.50;99.90
64855;DHT22;51321;50.428;8.378;2022-12-18T11:08:31;-1.70;99.90
64855;DHT22;51321;50.428;8.378;2022-12-18T11:10:53;-1.90;99.90
64855;DHT22;51321;50.428;8.378;2022-12-18T11:13:18;-1.90;99.90
64855;DHT22;51321;50.428;8.378;2022-12-18T11:15:43;-1.80;99.90
64855;DHT22;51321;50.428;8.378;2022-12-18T11:18:16;-1.90;99.90
64855;DHT22;51321;50.428;8.378;2022-12-18T11:20:39;-1.90;99.90
64855;DHT22;51321;50.428;8.378;2022-12-18T11:23:04;-2.10;99.90
64855;DHT22;51321;50.428;8.378;2022-12-18T11:25:33;-2.20;99.90
64855;DHT22;51321;50.428;8.378;2022-12-18T11:27:58;-2.40;99.90
64855;DHT22;51321;50.428;8.378;2022-12-18T11:30:24;-2.40;99.90
64855;DHT22;51321;50.428;8.378;2022-12-18T11:32:47;-2.40;99.90
64855;DHT22;51321;50.428;8.378;2022-12-18T11:35:16;-2.50;99.90
64855;DHT22;51321;50.428;8.378;2022-12-18T11:37:43;-2.40;99.90
64855;DHT22;51321;50.428;8.378;2022-12-18T11:40:15;-2.30;99.90
64855;DHT22;51321;50.428;8.378;2022-12-18T11:42:42;-2.40;99.90
64855;DHT22;51321;50.428;8.378;2022-12-18T11:45:22;-2.50;99.90
64855;DHT22;51321;50.428;8.378;2022-12-18T11:47:51;-2.60;99.90
64855;DHT22;51321;50.428;8.378;2022-12-18T11:50:17;-2.60;99.90
64855;DHT22;51321;50.428;8.378;2022-12-18T11:52:41;-2.60;99.90
64855;DHT22;51321;50.428;8.378;2022-12-18T11:55:12;-2.60;99.90
64855;DHT22;51321;50.428;8.378;2022-12-18T11:57:40;-2.50;99.90
64855;DHT22;51321;50.428;8.378;2022-12-18T12:00:13;-2.50;99.90
64855;DHT22;51321;50.428;8.378;2022-12-18T12:03:01;-2.50;99.90
64855;DHT22;51321;50.428;8.378;2022-12-18T12:05:39;-2.70;99.90
64855;DHT22;51321;50.428;8.378;2022-12-18T12:08:13;-2.70;99.90
64855;DHT22;51321;50.428;8.378;2022-12-18T12:10:50;-2.90;99.90
64855;DHT22;51321;50.428;8.378;2022-12-18T12:13:28;-2.90;99.90
64855;DHT22;51321;50.428;8.378;2022-12-18T12:16:02;-3.00;99.90
64855;DHT22;51321;50.428;8.378;2022-12-18T12:18:36;-3.00;99.90
64855;DHT22;51321;50.428;8.378;2022-12-18T12:21:07;-3.00;99.90
64855;DHT22;51321;50.428;8.378;2022-12-18T12:23:37;-3.00;99.90
64855;DHT22;51321;50.428;8.378;2022-12-18T12:26:05;-3.00;99.90
64855;DHT22;51321;50.428;8.378;2022-12-18T12:28:55;-3.00;99.90
64855;DHT22;51321;50.428;8.378;2022-12-18T12:31:29;-3.00;99.90
64855;DHT22;51321;50.428;8.378;2022-12-18T12:33:59;-3.00;99.90
64855;DHT22;51321;50.428;8.378;2022-12-18T12:36:29;-3.00;99.90
64855;DHT22;51321;50.428;8.378;2022-12-18T12:38:57;-3.00;99.90
64855;DHT22;51321;50.428;8.378;2022-12-18T12:41:26;-3.00;99.90
64855;DHT22;51321;50.428;8.378;2022-12-18T12:44:08;-3.00;99.90
64855;DHT22;51321;50.428;8.378;2022-12-18T12:46:37;-3.10;99.90
64855;DHT22;51321;50.428;8.378;2022-12-18T12:49:03;-3.10;99.90
64855;DHT22;51321;50.428;8.378;2022-12-18T12:51:28;-3.00;99.90
64855;DHT22;51321;50.428;8.378;2022-12-18T12:53:54;-3.00;99.90
64855;DHT22;51321;50.428;8.378;2022-12-18T12:56:18;-3.00;99.90
64855;DHT22;51321;50.428;8.378;2022-12-18T12:58:50;-3.00;99.90
64855;DHT22;51321;50.428;8.378;2022-12-18T13:01:21;-3.00;99.90
64855;DHT22;51321;50.428;8.378;2022-12-18T13:03:54;-3.00;99.90
64855;DHT22;51321;50.428;8.378;2022-12-18T13:06:19;-2.90;99.90
64855;DHT22;51321;50.428;8.378;2022-12-18T13:08:55;-2.90;99.90
64855;DHT22;51321;50.428;8.378;2022-12-18T13:11:30;-3.00;99.90
64855;DHT22;51321;50.428;8.378;2022-12-18T13:14:24;-3.10;99.90
64855;DHT22;51321;50.428;8.378;2022-12-18T13:16:48;-3.10;99.90
64855;DHT22;51321;50.428;8.378;2022-12-18T13:19:22;-3.20;99.90
64855;DHT22;51321;50.428;8.378;2022-12-18T13:21:53;-3.20;99.90
64855;DHT22;51321;50.428;8.378;2022-12-18T13:24:32;-3.20;99.90
64855;DHT22;51321;50.428;8.378;2022-12-18T13:26:58;-3.30;99.90
64855;DHT22;51321;50.428;8.378;2022-12-18T13:29:52;-3.40;99.90
64855;DHT22;51321;50.428;8.378;2022-12-18T13:32:20;-3.50;99.90
64855;DHT22;51321;50.428;8.378;2022-12-18T13:34:45;-3.50;99.90
64855;DHT22;51321;50.428;8.378;2022-12-18T13:37:38;-3.40;99.90
64855;DHT22;51321;50.428;8.378;2022-12-18T13:40:01;-3.40;99.90
64855;DHT22;51321;50.428;8.378;2022-12-18T13:42:38;-3.40;99.90
64855;DHT22;51321;50.428;8.378;2022-12-18T13:45:42;-3.40;99.90
64855;DHT22;51321;50.428;8.378;2022-12-18T13:48:15;-3.50;99.90
64855;DHT22;51321;50.428;8.378;2022-12-18T13:50:42;-3.60;99.90
64855;DHT22;51321;50.428;8.378;2022-12-18T13:53:15;-3.70;99.90
64855;DHT22;51321;50.428;8.378;2022-12-18T13:55:45;-3.70;99.90
64855;DHT22;51321;50.428;8.378;2022-12-18T13:58:12;-3.60;99.90
64855;DHT22;51321;50.428;8.378;2022-12-18T14:00:34;-3.60;99.90
64855;DHT22;51321;50.428;8.378;2022-12-18T14:02:59;-3.50;99.90
64855;DHT22;51321;50.428;8.378;2022-12-18T14:05:22;-3.50;99.90
64855;DHT22;51321;50.428;8.378;2022-12-18T14:07:45;-3.50;99.90
64855;DHT22;51321;50.428;8.378;2022-12-18T14:10:11;-3.50;99.90
64855;DHT22;51321;50.428;8.378;2022-12-18T14:12:36;-3.50;99.90
64855;DHT22;51321;50.428;8.378;2022-12-18T14:15:24;-3.60;99.90
64855;DHT22;51321;50.428;8.378;2022-12-18T14:17:50;-3.60;99.90
64855;DHT22;51321;50.428;8.378;2022-12-18T14:20:16;-3.60;99.90
64855;DHT22;51321;50.428;8.378;2022-12-18T14:22:42;-3.50;99.90
64855;DHT22;51321;50.428;8.378;2022-12-18T14:25:18;-3.60;99.90
64855;DHT22;51321;50.428;8.378;2022-12-18T14:27:42;-3.60;99.90
64855;DHT22;51321;50.428;8.378;2022-12-18T14:30:23;-3.60;99.90
64855;DHT22;51321;50.428;8.378;2022-12-18T14:33:00;-3.70;99.90
64855;DHT22;51321;50.428;8.378;2022-12-18T14:35:25;-3.70;99.90
64855;DHT22;51321;50.428;8.378;2022-12-18T14:37:47;-3.70;99.90
64855;DHT22;51321;50.428;8.378;2022-12-18T14:40:13;-3.70;99.90
64855;DHT22;51321;50.428;8.378;2022-12-18T14:42:35;-3.80;99.90
64855;DHT22;51321;50.428;8.378;2022-12-18T14:45:33;-3.90;99.90
64855;DHT22;51321;50.428;8.378;2022-12-18T14:47:56;-4.00;99.90
64855;DHT22;51321;50.428;8.378;2022-12-18T14:50:20;-4.00;99.90
64855;DHT22;51321;50.428;8.378;2022-12-18T14:52:44;-4.00;99.90
64855;DHT22;51321;50.428;8.378;2022-12-18T14:55:15;-3.90;99.90
64855;DHT22;51321;50.428;8.378;2022-12-18T14:57:38;-3.90;99.90
64855;DHT22;51321;50.428;8.378;2022-12-18T15:00:05;-4.00;99.90
64855;DHT22;51321;50.428;8.378;2022-12-18T15:02:28;-3.90;99.90
64855;DHT22;51321;50.428;8.378;2022-12-18T15:05:00;-4.00;99.90
64855;DHT22;51321;50.428;8.378;2022-12-18T15:07:23;-4.00;99.90
64855;DHT22;51321;50.428;8.378;2022-12-18T15:10:04;-3.90;99.90
64855;DHT22;51321;50.428;8.378;2022-12-18T15:12:36;-4.00;99.90
64855;DHT22;51321;50.428;8.378;2022-12-18T15:14:58;-3.90;99.90
64855;DHT22;51321;50.428;8.378;2022-12-18T15:17:22;-3.90;99.90
64855;DHT22;51321;50.428;8.378;2022-12-18T15:19:45;-4.00;99.90
64855;DHT22;51321;50.428;8.378;2022-12-18T15:22:21;-4.00;99.90
64855;DHT22;51321;50.428;8.378;2022-12-18T15:24:46;-4.00;99.90
64855;DHT22;51321;50.428;8.378;2022-12-18T15:27:33;-4.00;99.90
64855;DHT22;51321;50.428;8.378;2022-12-18T15:30:19;-4.00;99.90